Terminal Aerodrome Forecast
Issued by NWS Mt. Holly, NJ

Home | Current Version | Previous Version | Text Only | Print | Product List | Glossary On
Versions: 1 2 3 4 5 6 7 8 9 10 11 12 13 14 15 16 17
000
FTUS41 KPHI 270558
TAFTTN
TAF
KTTN 270558Z 2706/2806 00000KT P6SM OVC025
      TEMPO 2706/2708 5SM -SHRA BKN018
     FM270800 24005KT P6SM SCT009 OVC018
      TEMPO 2708/2711 BKN009
     FM271100 27004KT 6SM BR SCT006 OVC090
     FM271300 30005KT P6SM SCT015
     FM271700 27006KT P6SM BKN250
     FM280000 VRB03KT P6SM SKC=

USA.gov is the U.S. government's official web portal to all federal, state and local government web resources and services.